Time;durP1;ratioP1;P1;durP2;ratioP2;P2;SDS_P1;SDS_P2;PMS_P1;PMS_P2;Temp;Humidity;BMP_temperature;BMP_pressure;BME280_temperature;BME280_humidity;BME280_pressure;Samples;Min_cycle;Max_cycle;Signal;HPM_P1;HPM_P2
2022/12/21 00:01:20;;;;;;;6.32;3.45;;;11.00;99.90;;;;;;4974723;28;20030;-75
2022/12/21 00:03:53;;;;;;;10.27;4.15;;;11.00;99.90;;;;;;4974329;28;20450;-76
2022/12/21 00:06:22;;;;;;;5.88;3.65;;;11.00;99.90;;;;;;4973387;28;20034;-76
2022/12/21 00:08:51;;;;;;;5.60;3.58;;;11.00;99.90;;;;;;4974849;28;20034;-75
2022/12/21 00:11:18;;;;;;;9.10;3.53;;;11.00;99.90;;;;;;4974224;28;20046;-76
2022/12/21 00:13:44;;;;;;;7.70;3.67;;;10.90;99.90;;;;;;4974750;28;20031;-76
2022/12/21 00:16:17;;;;;;;6.33;3.30;;;10.90;99.90;;;;;;4955247;28;20110;-78
2022/12/21 00:18:44;;;;;;;7.78;3.78;;;10.90;99.90;;;;;;4955210;29;20491;-78
2022/12/21 00:21:14;;;;;;;;;;;10.80;99.90;;;;;;4955657;29;20027;-78
2022/12/21 00:23:42;;;;;;;7.03;3.55;;;10.80;99.90;;;;;;4954885;28;19977;-78
2022/12/21 00:26:12;;;;;;;5.85;3.70;;;10.80;99.90;;;;;;4955052;29;20050;-76
2022/12/21 00:28:39;;;;;;;5.88;3.92;;;10.70;99.90;;;;;;4955355;29;20074;-76
2022/12/21 00:31:14;;;;;;;5.93;3.67;;;10.70;99.90;;;;;;4954792;29;20027;-76
2022/12/21 00:33:49;;;;;;;7.78;3.85;;;10.80;99.90;;;;;;4954181;28;20180;-77
2022/12/21 00:36:19;;;;;;;6.10;4.05;;;10.80;99.90;;;;;;4953467;29;20114;-77
2022/12/21 00:38:47;;;;;;;5.47;3.83;;;10.80;99.90;;;;;;4953275;29;20043;-77
2022/12/21 00:41:18;;;;;;;8.65;4.10;;;10.80;99.90;;;;;;4954470;29;20031;-77
2022/12/21 00:43:49;;;;;;;6.80;4.22;;;10.80;99.90;;;;;;4954484;29;20542;-76
2022/12/21 00:46:31;;;;;;;7.32;4.47;;;10.80;99.90;;;;;;4954630;29;20213;-77
2022/12/21 00:49:05;;;;;;;7.68;3.83;;;10.70;99.90;;;;;;4954903;29;20027;-76
2022/12/21 00:51:33;;;;;;;9.70;4.40;;;10.70;99.90;;;;;;4955123;29;20054;-77
2022/12/21 00:54:03;;;;;;;8.27;3.88;;;10.70;99.90;;;;;;4937223;29;20082;-78
2022/12/21 00:56:33;;;;;;;6.90;4.05;;;10.60;99.90;;;;;;4953747;29;20035;-77
2022/12/21 00:59:02;;;;;;;7.72;4.18;;;10.70;99.90;;;;;;4954380;29;20392;-78
2022/12/21 01:01:34;;;;;;;6.80;4.15;;;10.70;99.90;;;;;;4954629;28;20046;-77
2022/12/21 01:04:02;;;;;;;10.05;4.45;;;10.70;99.90;;;;;;4954939;29;20082;-76
2022/12/21 01:06:31;;;;;;;7.65;4.30;;;10.60;99.90;;;;;;4954473;28;20388;-77
2022/12/21 01:08:58;;;;;;;9.43;4.20;;;10.60;99.90;;;;;;4954347;29;20546;-76
2022/12/21 01:11:25;;;;;;;9.35;4.20;;;10.60;99.90;;;;;;4954393;28;20036;-75
2022/12/21 01:13:53;;;;;;;6.35;3.78;;;10.60;99.90;;;;;;4954621;28;20047;-75
2022/12/21 01:16:22;;;;;;;5.38;3.55;;;10.60;99.90;;;;;;4954306;29;20059;-74
2022/12/21 01:18:49;;;;;;;7.78;4.28;;;10.60;99.90;;;;;;4954169;28;20046;-76
2022/12/21 01:21:27;;;;;;;6.22;3.75;;;10.60;99.90;;;;;;4954093;29;20106;-76
2022/12/21 01:23:55;;;;;;;7.57;3.90;;;10.50;99.90;;;;;;4954061;29;20383;-76
2022/12/21 01:26:23;;;;;;;9.60;4.38;;;10.50;99.90;;;;;;4954302;29;20093;-76
2022/12/21 01:28:52;;;;;;;7.30;4.03;;;10.50;99.90;;;;;;4954230;29;20074;-73
2022/12/21 01:31:18;;;;;;;10.00;4.30;;;10.50;99.90;;;;;;4954713;28;20085;-76
2022/12/21 01:33:44;;;;;;;8.82;3.88;;;10.50;99.90;;;;;;4953918;28;20431;-76
2022/12/21 01:36:13;;;;;;;7.40;4.13;;;10.40;99.90;;;;;;4952661;29;20051;-75
2022/12/21 01:38:44;;;;;;;7.60;4.22;;;10.40;99.90;;;;;;4952832;29;20519;-75
2022/12/21 01:41:17;;;;;;;6.82;4.22;;;10.40;99.90;;;;;;4953901;29;20023;-75
2022/12/21 01:44:20;;;;;;;6.68;4.05;;;10.40;99.90;;;;;;4954214;29;20074;-75
2022/12/21 01:46:48;;;;;;;7.40;3.85;;;10.40;99.90;;;;;;4956724;28;20023;-76
2022/12/21 01:49:29;;;;;;;8.88;4.28;;;10.40;99.90;;;;;;4940179;29;20050;-76
2022/12/21 01:52:07;;;;;;;7.95;3.80;;;10.40;99.90;;;;;;4957540;29;20027;-75
2022/12/21 01:54:43;;;;;;;8.77;4.60;;;10.40;99.90;;;;;;4958062;29;20094;-75
2022/12/21 01:57:12;;;;;;;10.95;4.95;;;10.30;99.90;;;;;;4958172;29;20495;-76
2022/12/21 01:59:43;;;;;;;8.48;4.63;;;10.30;99.90;;;;;;4958087;29;20086;-75
2022/12/21 02:02:17;;;;;;;9.10;4.70;;;10.20;99.90;;;;;;4958046;29;20106;-74
2022/12/21 02:04:43;;;;;;;8.98;4.43;;;10.20;99.90;;;;;;4957850;29;20383;-76
2022/12/21 02:07:10;;;;;;;9.45;4.80;;;10.10;99.90;;;;;;4957733;29;20497;-75
2022/12/21 02:09:37;;;;;;;;;;;10.20;99.90;;;;;;4957906;29;20491;-76
2022/12/21 02:12:08;;;;;;;6.63;4.13;;;10.20;99.90;;;;;;4965346;28;20219;-75
2022/12/21 02:14:41;;;;;;;7.35;4.35;;;10.20;99.90;;;;;;4975810;28;20034;-75
2022/12/21 02:17:34;;;;;;;10.13;4.38;;;10.20;99.90;;;;;;4976519;28;20031;-75
2022/12/21 02:20:09;;;;;;;7.35;4.28;;;10.30;99.90;;;;;;4976575;28;20381;-76
2022/12/21 02:22:35;;;;;;;10.50;5.40;;;10.30;99.90;;;;;;4976391;28;20081;-76
2022/12/21 02:25:28;;;;;;;9.77;5.00;;;10.40;99.90;;;;;;4976638;28;20118;-77
2022/12/21 02:28:36;;;;;;;8.57;4.25;;;10.40;99.90;;;;;;4976999;28;20038;-76
2022/12/21 02:31:23;;;;;;;6.97;4.03;;;10.40;99.90;;;;;;4976884;28;20091;-77
2022/12/21 02:33:59;;;;;;;8.93;4.60;;;10.40;99.90;;;;;;4976490;28;20118;-76
2022/12/21 02:36:57;;;;;;;7.13;4.55;;;10.40;99.90;;;;;;4976785;28;20026;-76
2022/12/21 02:40:01;;;;;;;6.20;4.15;;;10.30;99.90;;;;;;4976692;28;20113;-76
2022/12/21 02:45:59;;;;;;;8.35;3.67;;;10.30;99.90;;;;;;4955027;29;20038;-76
2022/12/21 02:48:42;;;;;;;8.88;4.03;;;10.40;99.90;;;;;;4955281;28;20360;-75
2022/12/21 02:51:13;;;;;;;7.13;4.15;;;10.30;99.90;;;;;;4954501;29;20450;-75
2022/12/21 02:53:50;;;;;;;6.80;4.07;;;10.30;99.90;;;;;;4954815;29;20032;-75
2022/12/21 02:56:18;;;;;;;7.80;4.30;;;10.30;99.90;;;;;;4954173;28;20039;-75
2022/12/21 02:58:46;;;;;;;7.95;4.43;;;10.20;99.90;;;;;;4953611;28;20051;-75
2022/12/21 03:01:21;;;;;;;9.18;4.78;;;10.20;99.90;;;;;;4954297;29;20087;-75
2022/12/21 03:04:06;;;;;;;9.63;4.70;;;10.10;99.90;;;;;;4954548;29;20146;-75
2022/12/21 03:06:56;;;;;;;8.60;4.47;;;10.10;99.90;;;;;;4954834;29;20066;-76
2022/12/21 03:10:01;;;;;;;8.50;4.95;;;10.10;99.90;;;;;;4954838;29;20031;-76
2022/12/21 03:12:44;;;;;;;9.48;4.80;;;10.00;99.90;;;;;;4916293;29;20524;-76
2022/12/21 03:15:36;;;;;;;8.73;4.75;;;10.00;99.90;;;;;;4914320;29;20038;-76
2022/12/21 03:18:44;;;;;;;10.02;5.05;;;10.10;99.90;;;;;;4897428;29;20048;-75
2022/12/21 03:21:13;;;;;;;9.30;4.82;;;10.10;99.90;;;;;;4877927;29;20045;-75
2022/12/21 03:23:57;;;;;;;8.98;4.70;;;10.10;99.90;;;;;;4878173;29;20029;-75
2022/12/21 03:26:51;;;;;;;7.97;4.38;;;10.10;99.90;;;;;;4878455;29;20104;-75
2022/12/21 03:29:21;;;;;;;10.18;5.10;;;10.00;99.90;;;;;;4878725;29;20033;-77
2022/12/21 03:31:57;;;;;;;9.63;4.55;;;10.00;99.90;;;;;;4878590;29;20162;-76
2022/12/21 03:34:25;;;;;;;;;;;9.90;99.90;;;;;;4878508;29;20049;-75
2022/12/21 03:37:03;;;;;;;8.35;4.30;;;10.00;99.90;;;;;;4878165;29;19918;-76
2022/12/21 03:39:31;;;;;;;8.57;4.35;;;10.00;99.90;;;;;;4878351;29;20074;-77
2022/12/21 03:42:20;;;;;;;9.15;4.50;;;10.10;99.90;;;;;;4878247;29;20510;-78
2022/12/21 03:45:16;;;;;;;9.10;4.75;;;10.10;99.90;;;;;;4878246;29;20116;-78
2022/12/21 03:47:52;;;;;;;9.98;4.13;;;10.10;99.90;;;;;;4908215;29;20065;-78
2022/12/21 03:50:23;;;;;;;8.95;4.57;;;10.10;99.90;;;;;;4955833;28;20027;-78
2022/12/21 03:53:06;;;;;;;6.75;4.60;;;10.10;99.90;;;;;;4955962;28;20035;-78
2022/12/21 03:55:36;;;;;;;7.22;4.28;;;10.10;99.90;;;;;;4955823;28;20042;-78
2022/12/21 03:58:03;;;;;;;9.00;4.60;;;10.20;99.90;;;;;;4955185;28;20118;-76
2022/12/21 04:00:48;;;;;;;7.30;4.53;;;10.20;99.90;;;;;;4955477;28;20032;-76
2022/12/21 04:03:23;;;;;;;11.73;4.80;;;10.20;99.90;;;;;;4955615;28;20030;-77
2022/12/21 04:05:52;;;;;;;7.38;4.50;;;10.20;99.90;;;;;;4955585;28;20034;-77
2022/12/21 04:08:19;;;;;;;8.07;4.50;;;10.20;99.90;;;;;;4955409;28;20032;-76
2022/12/21 04:10:47;;;;;;;9.15;5.22;;;10.20;99.90;;;;;;4955482;29;20103;-77
2022/12/21 04:13:14;;;;;;;8.35;5.05;;;10.20;99.90;;;;;;4955362;28;20070;-77
2022/12/21 04:21:13;;;;;;;10.30;4.88;;;10.10;99.90;;;;;;4955331;29;20038;-77
2022/12/21 04:29:19;;;;;;;7.82;4.60;;;10.00;99.90;;;;;;4956005;29;20031;-78
2022/12/21 04:31:46;;;;;;;5.43;3.83;;;10.10;99.90;;;;;;4955782;29;20396;-78
2022/12/21 04:34:12;;;;;;;7.22;4.18;;;10.10;99.90;;;;;;4969724;28;20047;-78
2022/12/21 04:39:22;;;;;;;10.35;4.50;;;10.10;99.90;;;;;;4974664;28;20517;-77
2022/12/21 04:41:48;;;;;;;8.15;4.40;;;10.10;99.90;;;;;;4974513;28;20058;-77
2022/12/21 04:44:14;;;;;;;8.23;4.30;;;10.10;99.90;;;;;;4974425;28;20109;-76
2022/12/21 04:46:42;;;;;;;9.00;4.30;;;10.10;99.90;;;;;;4974201;28;20463;-74
2022/12/21 04:49:08;;;;;;;8.90;4.32;;;10.10;99.90;;;;;;4973858;28;20030;-74
2022/12/21 04:51:34;;;;;;;5.80;4.00;;;10.10;99.90;;;;;;4974431;28;20034;-74
2022/12/21 04:54:03;;;;;;;8.48;4.22;;;10.20;99.90;;;;;;4974448;28;20034;-74
2022/12/21 04:56:30;;;;;;;10.20;4.70;;;10.10;99.90;;;;;;4973856;28;20062;-72
2022/12/21 04:58:56;;;;;;;5.28;4.03;;;10.20;99.90;;;;;;4973544;28;20062;-71
2022/12/21 05:01:24;;;;;;;6.82;4.15;;;10.20;99.90;;;;;;4973153;28;20074;-73
2022/12/21 05:03:53;;;;;;;7.72;4.38;;;10.20;99.90;;;;;;4973886;28;20423;-74
2022/12/21 05:06:20;;;;;;;8.52;4.22;;;10.20;99.90;;;;;;4972922;28;20035;-74
2022/12/21 05:08:48;;;;;;;8.77;4.07;;;10.20;99.90;;;;;;4973600;28;20053;-73
2022/12/21 05:11:22;;;;;;;7.00;4.00;;;10.30;99.90;;;;;;4955126;28;20035;-73
2022/12/21 05:13:50;;;;;;;6.53;3.78;;;10.30;99.90;;;;;;4972093;28;20050;-75
2022/12/21 05:16:23;;;;;;;8.05;3.75;;;10.30;99.90;;;;;;4972125;28;20027;-75
2022/12/21 05:19:01;;;;;;;9.15;4.60;;;10.30;99.90;;;;;;4971639;28;20039;-71
2022/12/21 05:21:28;;;;;;;7.97;3.63;;;10.40;99.90;;;;;;4972571;28;20043;-73
2022/12/21 05:23:56;;;;;;;6.43;3.58;;;10.30;99.90;;;;;;4974319;28;20026;-74
2022/12/21 05:26:25;;;;;;;7.20;4.25;;;10.30;99.90;;;;;;4974254;28;20509;-73
2022/12/21 05:28:52;;;;;;;9.45;3.65;;;10.30;99.90;;;;;;4973982;28;20146;-74
2022/12/21 05:31:19;;;;;;;6.75;3.83;;;10.30;99.90;;;;;;4974911;28;20460;-75
2022/12/21 05:33:46;;;;;;;6.53;4.13;;;10.20;99.90;;;;;;4973955;28;20058;-75
2022/12/21 05:36:15;;;;;;;6.53;4.28;;;10.20;99.90;;;;;;4974986;28;20026;-73
2022/12/21 05:38:41;;;;;;;7.47;4.28;;;10.20;99.90;;;;;;4974652;28;20480;-75
2022/12/21 05:41:08;;;;;;;9.38;4.18;;;10.20;99.90;;;;;;4974519;28;20372;-74
2022/12/21 05:43:35;;;;;;;6.25;3.85;;;10.30;99.90;;;;;;4974907;28;20455;-75
2022/12/21 05:46:03;;;;;;;5.53;3.78;;;10.30;99.90;;;;;;4973835;28;20030;-75
2022/12/21 05:48:31;;;;;;;9.88;3.95;;;10.30;99.90;;;;;;4968078;28;20042;-73
2022/12/21 05:50:58;;;;;;;8.05;4.20;;;10.30;99.90;;;;;;4973655;28;20065;-72
2022/12/21 05:53:24;;;;;;;7.07;4.00;;;10.30;99.90;;;;;;4973810;28;20026;-73
2022/12/21 05:55:51;;;;;;;11.17;4.00;;;10.30;99.90;;;;;;4974681;28;20027;-75
2022/12/21 05:58:19;;;;;;;6.82;4.10;;;10.30;99.90;;;;;;4973969;28;20038;-74
2022/12/21 06:00:45;;;;;;;7.50;4.35;;;10.40;99.90;;;;;;4956864;28;20446;-75
2022/12/21 06:03:12;;;;;;;7.55;4.47;;;10.40;99.90;;;;;;4974001;28;20039;-75
2022/12/21 06:05:38;;;;;;;7.37;4.40;;;10.40;99.90;;;;;;4972798;28;20053;-75
2022/12/21 06:08:05;;;;;;;6.53;4.03;;;10.40;99.90;;;;;;4973858;28;20030;-75
2022/12/21 06:10:36;;;;;;;6.47;4.07;;;10.40;99.90;;;;;;4973203;28;20081;-76
2022/12/21 06:13:02;;;;;;;7.45;4.80;;;10.40;99.90;;;;;;4973607;28;20084;-75
2022/12/21 06:15:28;;;;;;;7.75;4.10;;;10.70;99.90;;;;;;4974051;28;20101;-75
2022/12/21 06:17:56;;;;;;;7.07;3.73;;;10.60;99.90;;;;;;4974540;28;20031;-75
2022/12/21 06:20:22;;;;;;;9.40;3.90;;;10.60;99.90;;;;;;4973693;28;20043;-76
2022/12/21 06:22:49;;;;;;;11.07;4.37;;;10.60;99.90;;;;;;4973421;28;20043;-76
2022/12/21 06:25:16;;;;;;;5.57;3.63;;;10.70;99.90;;;;;;4973548;28;20027;-76
2022/12/21 06:27:42;;;;;;;6.65;3.17;;;11.00;99.90;;;;;;4974218;28;20034;-76
2022/12/21 06:30:09;;;;;;;7.30;3.37;;;10.90;99.90;;;;;;4973920;28;20023;-75
2022/12/21 06:32:36;;;;;;;9.10;2.88;;;11.00;99.90;;;;;;4976017;28;20023;-76
2022/12/21 06:35:05;;;;;;;8.70;3.22;;;11.00;99.90;;;;;;4977522;28;20470;-75
2022/12/21 06:37:32;;;;;;;7.43;3.65;;;11.10;99.90;;;;;;4977156;28;20026;-76
2022/12/21 06:39:59;;;;;;;6.70;3.38;;;11.40;99.90;;;;;;4976958;28;20498;-75
2022/12/21 06:42:27;;;;;;;6.93;4.07;;;11.60;99.90;;;;;;4976265;28;20031;-76
2022/12/21 06:44:54;;;;;;;6.97;3.35;;;12.20;99.90;;;;;;4977038;28;20101;-76
2022/12/21 06:47:21;;;;;;;5.30;3.22;;;12.70;99.90;;;;;;4976546;28;20080;-75
2022/12/21 06:49:50;;;;;;;7.78;3.28;;;13.30;99.90;;;;;;4975582;28;20033;-76
2022/12/21 06:52:17;;;;;;;7.28;4.00;;;13.80;99.90;;;;;;4957094;28;20424;-79
2022/12/21 06:54:43;;;;;;;7.93;3.60;;;14.30;99.90;;;;;;4974448;28;20098;-77
2022/12/21 06:57:11;;;;;;;6.97;3.25;;;14.30;99.90;;;;;;4970771;28;20094;-76
2022/12/21 06:59:37;;;;;;;9.38;3.72;;;14.60;99.90;;;;;;4971189;28;20039;-76
2022/12/21 07:02:09;;;;;;;7.83;3.73;;;14.50;99.90;;;;;;4972946;28;20144;-75
2022/12/21 07:04:37;;;;;;;11.05;7.85;;;14.80;99.90;;;;;;4970079;28;20391;-75
2022/12/21 07:07:04;;;;;;;5.70;3.60;;;14.70;99.90;;;;;;4972642;28;20058;-74
2022/12/21 07:09:30;;;;;;;8.15;3.60;;;14.80;99.90;;;;;;4955126;28;20141;-75
2022/12/21 07:11:56;;;;;;;6.70;3.50;;;15.00;99.90;;;;;;4972883;28;20102;-74
2022/12/21 07:14:22;;;;;;;7.07;3.40;;;15.20;99.90;;;;;;4975164;28;20049;-69
2022/12/21 07:16:48;;;;;;;6.65;3.42;;;15.30;99.90;;;;;;4975072;28;20308;-76
2022/12/21 07:19:31;;;;;;;7.68;3.50;;;15.40;99.90;;;;;;4972758;28;20031;-77
2022/12/21 07:22:19;;;;;;;6.45;3.20;;;15.50;99.90;;;;;;4953757;28;20039;-78
2022/12/21 07:25:08;;;;;;;6.70;3.00;;;16.30;99.90;;;;;;4958639;23;20051;-75
2022/12/21 07:27:58;;;;;;;6.40;2.85;;;16.30;99.90;;;;;;4953928;28;20034;-79
2022/12/21 07:30:32;;;;;;;7.95;3.03;;;16.20;99.90;;;;;;4955962;29;20043;-78
2022/12/21 07:33:22;;;;;;;6.47;2.65;;;16.30;99.90;;;;;;4954425;28;20068;-81
2022/12/21 07:36:11;;;;;;;4.70;2.50;;;16.40;99.90;;;;;;4954284;28;20058;-79
2022/12/21 07:39:02;;;;;;;6.40;2.53;;;16.70;99.90;;;;;;4956656;28;20046;-77
2022/12/21 07:41:31;;;;;;;7.53;2.60;;;16.60;99.90;;;;;;4953912;28;20483;-80
2022/12/21 07:44:03;;;;;;;8.55;2.70;;;16.50;99.90;;;;;;4955939;28;20023;-77
2022/12/21 07:46:38;;;;;;;6.82;2.67;;;16.20;99.90;;;;;;4955373;28;20058;-77
2022/12/21 07:49:04;;;;;;;6.95;2.78;;;16.00;99.90;;;;;;4954795;28;20046;-72
2022/12/21 07:51:34;;;;;;;5.93;3.20;;;15.60;99.90;;;;;;4980189;23;20062;-78
2022/12/21 07:54:02;;;;;;;8.23;3.33;;;15.50;99.90;;;;;;4974690;28;20019;-74
2022/12/21 07:56:37;;;;;;;6.15;2.90;;;15.40;99.90;;;;;;4974106;28;20490;-78
2022/12/21 07:59:06;;;;;;;6.50;3.40;;;15.30;99.90;;;;;;4974711;28;20065;-80
2022/12/21 08:01:35;;;;;;;7.38;3.38;;;15.40;99.90;;;;;;4957454;28;20095;-75
2022/12/21 08:04:06;;;;;;;7.55;3.20;;;15.40;99.90;;;;;;4974507;28;20089;-79
2022/12/21 08:06:39;;;;;;;7.43;3.45;;;15.30;99.90;;;;;;4957482;28;20034;-80
2022/12/21 08:09:06;;;;;;;6.80;3.60;;;15.30;99.90;;;;;;4981564;23;20058;-76
2022/12/21 08:11:47;;;;;;;5.63;3.55;;;15.30;99.90;;;;;;4966222;28;20512;-83
2022/12/21 08:14:50;;;;;;;6.90;3.60;;;15.30;99.90;;;;;;4937428;29;20078;-84
2022/12/21 08:17:20;;;;;;;7.13;3.83;;;15.20;99.90;;;;;;4968850;28;20046;-77
2022/12/21 08:19:46;;;;;;;8.88;4.03;;;15.10;99.90;;;;;;4964204;28;20034;-74
2022/12/21 08:22:15;;;;;;;9.33;5.00;;;15.10;99.90;;;;;;4972798;28;20031;-76
2022/12/21 08:24:45;;;;;;;9.23;4.60;;;15.10;99.90;;;;;;4973647;28;20274;-73
2022/12/21 08:27:11;;;;;;;7.65;4.50;;;15.10;99.90;;;;;;4974182;28;20015;-72
2022/12/21 08:29:37;;;;;;;11.88;4.75;;;15.10;99.90;;;;;;4973446;28;20110;-74
2022/12/21 08:32:04;;;;;;;7.10;4.28;;;15.10;99.90;;;;;;4971914;28;20056;-73
2022/12/21 08:34:30;;;;;;;;;;;15.20;99.90;;;;;;4974850;28;20023;-74
2022/12/21 08:36:57;;;;;;;9.38;5.05;;;15.30;99.90;;;;;;4973893;28;19929;-78
2022/12/21 08:39:26;;;;;;;8.70;4.70;;;15.40;99.90;;;;;;4973818;28;20026;-75
2022/12/21 08:41:53;;;;;;;11.65;5.10;;;15.40;99.90;;;;;;4972722;28;20410;-70
2022/12/21 08:44:19;;;;;;;8.13;4.95;;;15.40;99.90;;;;;;4967855;28;20105;-75
2022/12/21 08:46:49;;;;;;;10.75;5.18;;;15.60;99.90;;;;;;4973329;28;20019;-77
2022/12/21 08:49:18;;;;;;;9.48;4.20;;;15.80;99.90;;;;;;4973646;28;20035;-79
2022/12/21 08:51:48;;;;;;;7.05;3.33;;;16.10;99.90;;;;;;4973024;28;20483;-79
2022/12/21 08:54:18;;;;;;;8.75;5.30;;;16.30;99.90;;;;;;4972892;28;20050;-78
2022/12/21 08:56:51;;;;;;;6.65;4.50;;;16.40;99.90;;;;;;4972987;28;20022;-77
2022/12/21 08:59:18;;;;;;;8.38;3.40;;;16.50;99.90;;;;;;4974026;28;20072;-75
2022/12/21 09:01:44;;;;;;;8.15;4.10;;;16.70;99.90;;;;;;4954325;28;20101;-80
2022/12/21 09:04:12;;;;;;;8.15;3.58;;;16.70;99.90;;;;;;4956271;28;20026;-78
2022/12/21 09:06:42;;;;;;;7.15;2.90;;;16.70;99.90;;;;;;4973931;28;20039;-79
2022/12/21 09:09:36;;;;;;;13.95;3.53;;;16.80;99.90;;;;;;4955815;28;20038;-79
2022/12/21 09:12:14;;;;;;;8.88;3.60;;;16.60;99.90;;;;;;4942898;28;20090;-83
2022/12/21 09:15:23;;;;;;;7.25;3.00;;;16.60;99.90;;;;;;4970480;28;20035;-76
2022/12/21 09:18:12;;;;;;;10.13;3.47;;;16.50;99.90;;;;;;4970444;28;20031;-77
2022/12/21 09:20:41;;;;;;;10.63;3.60;;;16.60;99.90;;;;;;4963499;23;20039;-74
2022/12/21 09:26:19;;;;;;;6.57;3.40;;;16.70;99.90;;;;;;4979721;23;20499;-78
2022/12/21 09:34:30;;;;;;;7.57;3.17;;;16.50;99.90;;;;;;4996947;23;20019;-79
2022/12/21 09:37:03;;;;;;;5.78;3.30;;;16.90;99.90;;;;;;5083525;23;20059;-79
2022/12/21 09:45:31;;;;;;;;;;;16.80;99.90;;;;;;4981179;23;20121;-79
2022/12/21 09:48:14;;;;;;;12.15;3.75;;;16.70;99.90;;;;;;4970218;28;19910;-73
2022/12/21 09:50:52;;;;;;;8.02;3.40;;;17.00;99.90;;;;;;4955278;28;20387;-72
2022/12/21 09:54:09;;;;;;;6.45;3.08;;;16.60;99.90;;;;;;4972677;28;20026;-71
2022/12/21 09:56:43;;;;;;;7.05;3.63;;;16.40;99.90;;;;;;4973062;28;20082;-71
2022/12/21 09:59:13;;;;;;;11.10;3.80;;;16.30;99.90;;;;;;4954680;29;20070;-76
2022/12/21 10:02:11;;;;;;;6.25;3.15;;;16.30;99.90;;;;;;4953965;29;20027;-72
2022/12/21 10:05:15;;;;;;;8.70;4.25;;;16.20;99.90;;;;;;4954089;29;20082;-78
2022/12/21 10:14:10;;;;;;;6.47;3.15;;;16.90;99.90;;;;;;4973705;23;20062;-75
2022/12/21 10:16:53;;;;;;;6.88;3.00;;;16.90;99.90;;;;;;4969102;28;20152;-74
2022/12/21 10:20:07;;;;;;;6.18;2.95;;;16.60;99.90;;;;;;4974156;28;20061;-75
2022/12/21 10:22:42;;;;;;;8.68;3.30;;;16.60;99.90;;;;;;4959318;28;20042;-73
2022/12/21 10:25:27;;;;;;;9.90;4.05;;;16.90;99.90;;;;;;4976146;28;20509;-72
2022/12/21 10:28:59;;;;;;;10.75;3.90;;;17.10;99.90;;;;;;4959007;28;20038;-73
2022/12/21 10:31:45;;;;;;;8.13;3.78;;;17.50;99.90;;;;;;4976417;28;20027;-75
2022/12/21 10:35:05;;;;;;;7.90;3.35;;;17.70;99.90;;;;;;4983289;23;20571;-79
2022/12/21 10:42:12;;;;;;;7.28;3.30;;;18.10;99.90;;;;;;4944489;29;20094;-79
2022/12/21 10:44:42;;;;;;;5.78;2.70;;;18.10;99.90;;;;;;4938531;29;20043;-76
2022/12/21 10:47:45;;;;;;;8.18;2.78;;;18.00;99.90;;;;;;4956568;29;20031;-77
2022/12/21 10:50:54;;;;;;;5.63;2.22;;;18.00;99.90;;;;;;4954982;29;20078;-74
2022/12/21 10:53:37;;;;;;;5.28;2.22;;;18.00;99.90;;;;;;4965370;23;20039;-73
2022/12/21 10:56:06;;;;;;;5.88;2.20;;;18.10;99.90;;;;;;4974779;28;20129;-71
2022/12/21 11:02:04;;;;;;;7.10;2.92;;;18.20;99.90;;;;;;4912889;29;20051;-75
2022/12/21 11:04:58;;;;;;;11.75;2.65;;;18.30;99.90;;;;;;4975789;22;20066;-76
2022/12/21 11:10:21;;;;;;;6.10;2.80;;;18.10;99.90;;;;;;4980520;23;20367;-74
2022/12/21 11:16:12;;;;;;;4.75;2.70;;;18.00;99.90;;;;;;4983056;23;20654;-74
2022/12/21 11:22:01;;;;;;;8.05;3.10;;;18.20;99.90;;;;;;5035864;23;20285;-83
2022/12/21 11:24:43;;;;;;;4.97;2.08;;;18.40;99.90;;;;;;4999659;23;20059;-80
2022/12/21 11:27:11;;;;;;;6.72;2.00;;;18.20;99.90;;;;;;4959762;28;20023;-75
2022/12/21 11:30:01;;;;;;;3.60;1.67;;;18.20;99.90;;;;;;4982383;23;20050;-80
2022/12/21 11:32:33;;;;;;;6.93;1.80;;;18.40;99.90;;;;;;4968827;28;20197;-78
2022/12/21 11:35:06;;;;;;;4.57;1.52;;;18.30;99.90;;;;;;4974923;28;20021;-80
2022/12/21 11:37:35;;;;;;;4.82;1.67;;;18.40;99.90;;;;;;4975509;28;20376;-75
2022/12/21 11:40:13;;;;;;;4.63;1.50;;;18.30;99.90;;;;;;4975372;28;20034;-76
2022/12/21 11:43:00;;;;;;;4.50;1.85;;;18.50;99.90;;;;;;4975479;28;20062;-74
2022/12/21 11:45:32;;;;;;;3.38;1.63;;;18.70;99.90;;;;;;4969329;28;20055;-78
2022/12/21 11:48:27;;;;;;;5.03;1.73;;;18.80;99.90;;;;;;4974730;28;20037;-76
2022/12/21 11:51:30;;;;;;;3.97;1.52;;;18.20;99.90;;;;;;4975375;28;20383;-77
2022/12/21 11:54:31;;;;;;;2.65;1.10;;;18.40;99.90;;;;;;4974228;28;20518;-76
2022/12/21 11:57:34;;;;;;;4.05;1.30;;;18.30;99.90;;;;;;4975296;28;20023;-78
2022/12/21 12:00:21;;;;;;;3.38;1.52;;;18.10;99.90;;;;;;4975577;28;20038;-77
2022/12/21 12:03:25;;;;;;;7.32;2.45;;;18.20;99.90;;;;;;4973430;28;20380;-77
2022/12/21 12:06:24;;;;;;;4.75;2.45;;;18.40;99.90;;;;;;4951276;28;20165;-77
2022/12/21 12:09:23;;;;;;;8.23;3.67;;;18.50;99.90;;;;;;4974908;28;20031;-76
2022/12/21 12:12:13;;;;;;;6.97;2.95;;;18.60;99.90;;;;;;4971092;28;20097;-74
2022/12/21 12:14:56;;;;;;;6.45;2.70;;;18.40;99.90;;;;;;4955497;28;20025;-79
2022/12/21 12:17:59;;;;;;;7.15;2.55;;;18.40;99.90;;;;;;4971901;23;20088;-77
2022/12/21 12:21:07;;;;;;;7.53;2.90;;;18.50;99.90;;;;;;4954964;29;20051;-75
2022/12/21 12:24:18;;;;;;;7.57;3.05;;;18.40;99.90;;;;;;4915452;29;20039;-75
2022/12/21 12:27:15;;;;;;;12.85;3.15;;;18.40;99.90;;;;;;4896827;29;20116;-76
2022/12/21 12:30:18;;;;;;;9.80;3.08;;;18.40;99.90;;;;;;4896573;29;20107;-76
2022/12/21 12:33:16;;;;;;;7.38;3.00;;;18.50;99.90;;;;;;4896355;29;20259;-75
2022/12/21 12:36:08;;;;;;;8.57;3.10;;;18.50;99.90;;;;;;4896787;29;20075;-77
2022/12/21 12:38:58;;;;;;;7.53;3.10;;;18.50;99.90;;;;;;4895689;29;20045;-76
2022/12/21 12:41:44;;;;;;;7.82;2.78;;;18.50;99.90;;;;;;4954587;23;20141;-75
2022/12/21 12:44:32;;;;;;;7.72;2.97;;;18.30;99.90;;;;;;4966354;28;20031;-72
2022/12/21 12:47:22;;;;;;;7.82;2.80;;;18.40;99.90;;;;;;4955532;29;20047;-72
2022/12/21 12:50:21;;;;;;;8.57;2.90;;;18.40;99.90;;;;;;4954760;28;20027;-75
2022/12/21 12:53:42;;;;;;;4.95;2.60;;;18.50;99.90;;;;;;4955541;29;20027;-75
2022/12/21 12:56:37;;;;;;;13.85;3.10;;;18.40;99.90;;;;;;4955429;29;20476;-72
2022/12/21 12:59:17;;;;;;;8.13;3.00;;;18.30;99.90;;;;;;4966611;28;20042;-74
2022/12/21 13:02:26;;;;;;;5.72;3.10;;;18.00;99.90;;;;;;4969707;28;20023;-75
2022/12/21 13:05:32;;;;;;;8.55;2.80;;;17.90;99.90;;;;;;4973685;28;20043;-74
2022/12/21 13:08:48;;;;;;;5.88;3.08;;;18.10;99.90;;;;;;4974449;28;20030;-79
2022/12/21 13:11:17;;;;;;;5.70;2.90;;;18.10;99.90;;;;;;4955857;29;20158;-84
2022/12/21 13:14:05;;;;;;;7.20;2.92;;;18.30;99.90;;;;;;4955953;29;20032;-80
2022/12/21 13:16:41;;;;;;;7.65;2.97;;;18.20;99.90;;;;;;4970086;28;20026;-82
2022/12/21 13:19:30;;;;;;;5.90;3.25;;;18.00;99.90;;;;;;4981250;23;20050;-79
2022/12/21 13:22:05;;;;;;;6.40;2.80;;;18.10;99.90;;;;;;4970252;28;20285;-74
2022/12/21 13:24:53;;;;;;;9.90;3.17;;;18.30;99.90;;;;;;4956486;28;20037;-74
2022/12/21 13:27:29;;;;;;;7.25;2.97;;;18.40;99.90;;;;;;4967813;28;20027;-72
2022/12/21 13:30:12;;;;;;;8.90;2.90;;;18.40;99.90;;;;;;4973005;28;20023;-71
2022/12/21 13:32:49;;;;;;;11.63;3.42;;;18.00;99.90;;;;;;4974347;28;20023;-77
2022/12/21 13:35:24;;;;;;;10.43;2.90;;;17.80;99.90;;;;;;4971804;28;20497;-76
2022/12/21 13:38:31;;;;;;;7.47;3.10;;;17.80;99.90;;;;;;4973106;28;20379;-78
2022/12/21 13:41:18;;;;;;;5.65;2.60;;;17.90;99.90;;;;;;4963180;28;20127;-72
2022/12/21 13:43:56;;;;;;;7.50;3.10;;;18.10;99.90;;;;;;4970339;28;20390;-75
2022/12/21 13:46:23;;;;;;;7.97;2.75;;;18.10;99.90;;;;;;4973226;28;20110;-72
2022/12/21 13:48:59;;;;;;;;;;;18.20;99.90;;;;;;4974314;28;20460;-74
2022/12/21 13:51:34;;;;;;;;;;;18.10;99.90;;;;;;4967392;28;19913;-74
2022/12/21 13:54:16;;;;;;;5.57;2.90;;;17.90;99.90;;;;;;4937811;29;19928;-75
2022/12/21 13:57:11;;;;;;;5.80;3.20;;;18.00;99.90;;;;;;4970672;28;20490;-74
2022/12/21 14:00:23;;;;;;;7.60;2.80;;;17.80;99.90;;;;;;4972757;28;20038;-78
2022/12/21 14:02:55;;;;;;;9.13;3.00;;;17.80;99.90;;;;;;4895983;29;20052;-79
2022/12/21 14:05:29;;;;;;;7.53;3.00;;;17.90;99.90;;;;;;4896071;29;20045;-76
2022/12/21 14:08:04;;;;;;;7.45;3.40;;;17.90;99.90;;;;;;4894107;29;20029;-77
2022/12/21 14:10:40;;;;;;;;;;;18.00;99.90;;;;;;4885838;29;20115;-78
2022/12/21 14:13:18;;;;;;;7.28;3.25;;;17.90;99.90;;;;;;4896104;29;20006;-76
2022/12/21 14:16:14;;;;;;;6.90;2.97;;;18.10;99.90;;;;;;4896215;29;20094;-71
2022/12/21 14:18:41;;;;;;;6.93;2.72;;;17.90;99.90;;;;;;4895889;29;20115;-69
2022/12/21 14:21:17;;;;;;;6.72;3.35;;;18.00;99.90;;;;;;4896176;29;20045;-72
2022/12/21 14:23:54;;;;;;;7.45;3.03;;;17.90;99.90;;;;;;4895126;29;20033;-77
2022/12/21 14:26:53;;;;;;;6.53;3.20;;;17.90;99.90;;;;;;4896028;29;20032;-80
2022/12/21 14:29:41;;;;;;;7.78;3.28;;;17.80;99.90;;;;;;4895470;29;20050;-80
2022/12/21 14:32:18;;;;;;;9.40;3.10;;;17.80;99.90;;;;;;4896227;29;20039;-80
2022/12/21 14:34:59;;;;;;;9.55;3.17;;;17.60;99.90;;;;;;4895873;29;20090;-80